Whitby, Canada
Current Conditions -  °F | °C
As of 9:00 AM on Friday 28 Nov 2014 (Local Time) from CYOO Reporting Station
Clear Clear  
Wind Chill: 11°   Ceiling: Unl
Heat Index: 23°   Visibility: 9mi
Dew Point: 10°   Wind: 14mph
Humidity: 59%   Direction: 280°W
Pressure: 30.23"   Gusts: NA
Location:  43.9°N, 78.94°W
Report Text: CYOO 281400Z AUTO 28012KT 9SM CLR M05/M12 A3023 RMK SLP245
Loading
Personal Weather Stations






























Interactive Weather Map New forecast layout! Learn more

10-Day Weather Forecast

Advertisements
Track Severe Weather on mobile